createdAt,value
2019-05-10T00:36:32.462Z,998.31
2019-05-10T00:37:33.599Z,998.31
2019-05-10T00:38:32.493Z,998.23
2019-05-10T00:39:32.526Z,998.24
2019-05-10T00:40:32.529Z,998.23
2019-05-10T00:41:32.582Z,998.25
2019-05-10T00:42:32.548Z,998.23
2019-05-10T02:16:06.309Z,998.79
2019-05-10T12:09:52.611Z,1004.93
2019-05-10T12:10:52.995Z,1004.95
2019-05-10T12:11:51.788Z,1004.93
2019-05-10T12:13:01.664Z,1004.91
2019-05-10T12:13:46.717Z,1004.99
2019-05-10T12:14:46.884Z,1004.89
2019-05-10T12:15:46.767Z,1004.92
2019-05-10T12:16:48.307Z,1004.94
2019-05-10T12:17:49.811Z,1004.94
2019-05-10T12:19:01.206Z,1004.98
2019-05-10T12:19:50.492Z,1005.02
2019-05-10T12:20:54.795Z,1004.89
2019-05-10T12:21:46.779Z,1004.95
2019-05-10T12:22:47.689Z,1004.97
2019-05-10T12:25:14.130Z,1004.94
2019-05-10T12:26:18.916Z,1004.95
2019-05-10T12:26:33.846Z,1004.98
2019-05-10T12:27:12.988Z,1004.93
2019-05-10T12:27:49.189Z,1004.97
2019-05-10T12:28:47.468Z,1004.95
2019-05-10T12:29:51.840Z,1004.99
2019-05-10T12:30:47.456Z,1004.99
2019-05-10T12:31:52.146Z,1004.99
2019-05-10T12:32:55.859Z,1004.95
2019-05-10T12:33:46.308Z,1004.98
2019-05-10T12:34:50.452Z,1004.96
2019-05-10T12:35:47.344Z,1004.99
2019-05-10T12:36:46.337Z,1004.89
2019-05-10T12:37:51.405Z,1004.95
2019-05-10T12:38:45.868Z,1004.92
2019-05-10T12:39:45.837Z,1004.90
2019-05-10T12:40:46.058Z,1004.80
2019-05-10T12:41:49.643Z,1004.94
2019-05-10T12:42:47.055Z,1004.87
2019-05-10T12:43:48.548Z,1004.83
2019-05-10T12:44:47.928Z,1004.77
2019-05-10T12:45:46.038Z,1004.80
2019-05-10T12:46:46.103Z,1004.87
2019-05-10T12:47:47.002Z,1004.92
2019-05-10T12:48:46.027Z,1004.94
2019-05-10T12:49:46.099Z,1004.89
2019-05-10T12:50:46.096Z,1004.86
2019-05-10T12:51:46.086Z,1004.81
2019-05-10T12:52:50.516Z,1004.83
2019-05-10T12:53:49.228Z,1004.87
2019-05-10T12:54:46.152Z,1004.82
2019-05-10T12:55:46.348Z,1004.82
2019-05-10T12:56:46.341Z,1004.86
2019-05-10T12:57:46.253Z,1004.82
2019-05-10T12:58:56.328Z,1004.84
2019-05-10T12:59:46.373Z,1004.80
2019-05-10T13:00:51.654Z,1004.87
2019-05-10T13:01:46.292Z,1004.83
2019-05-10T13:02:51.079Z,1004.89
2019-05-10T13:03:46.379Z,1004.87
2019-05-10T13:04:46.990Z,1004.87
2019-05-10T13:05:52.358Z,1004.88
2019-05-10T13:06:46.660Z,1004.90
2019-05-10T13:07:48.217Z,1004.89
2019-05-10T13:08:46.494Z,1004.91
2019-05-10T13:09:49.637Z,1004.89
2019-05-10T13:10:49.787Z,1004.96
2019-05-10T13:11:46.613Z,1004.97
2019-05-10T13:12:47.406Z,1004.99
2019-05-10T13:13:46.598Z,1004.99
2019-05-10T13:14:51.906Z,1005.00
2019-05-10T13:15:46.619Z,1005.03
2019-05-10T13:16:46.642Z,1005.14
2019-05-10T13:17:50.468Z,1005.22
2019-05-10T13:18:52.346Z,1005.23
2019-05-10T13:19:46.652Z,1005.28
2019-05-10T13:20:46.676Z,1005.25
2019-05-10T13:21:46.694Z,1005.21
2019-05-10T13:22:47.342Z,1005.25
2019-05-10T13:23:46.750Z,1005.26
2019-05-10T13:24:46.851Z,1005.28
2019-05-10T13:25:46.856Z,1005.28
2019-05-10T13:26:46.910Z,1005.18
2019-05-10T13:27:46.879Z,1005.15
2019-05-10T13:28:46.916Z,1005.17
2019-05-10T13:29:52.808Z,1005.20
2019-05-10T13:30:46.929Z,1005.18
2019-05-10T13:31:46.925Z,1005.22
2019-05-10T13:32:52.654Z,1005.21
2019-05-10T13:33:47.117Z,1005.26
2019-05-10T13:34:47.915Z,1005.22
2019-05-10T13:35:50.655Z,1005.24
2019-05-10T13:36:47.428Z,1005.19
2019-05-10T13:38:49.225Z,1005.19
2019-05-10T13:39:47.504Z,1005.24
2019-05-10T13:40:48.659Z,1005.21
2019-05-10T13:41:51.110Z,1005.18
2019-05-10T13:42:48.375Z,1005.18
2019-05-10T13:43:47.955Z,1005.21
2019-05-10T13:44:47.528Z,1005.21
2019-05-10T13:45:48.314Z,1005.23
2019-05-10T13:46:47.257Z,1005.25
2019-05-10T13:47:47.183Z,1005.27
2019-05-10T13:48:47.215Z,1005.30
2019-05-10T13:49:48.886Z,1005.29
2019-05-10T13:50:47.305Z,1005.27
2019-05-10T13:51:47.242Z,1005.28
2019-05-10T13:52:47.390Z,1005.25
2019-05-10T13:53:47.332Z,1005.29
2019-05-10T13:54:47.303Z,1005.28
2019-05-10T13:55:47.316Z,1005.29
2019-05-10T13:56:52.242Z,1005.31
2019-05-10T13:57:47.449Z,1005.35
2019-05-10T13:58:47.381Z,1005.32
2019-05-10T13:59:49.065Z,1005.33
2019-05-10T14:00:47.500Z,1005.37
2019-05-10T14:01:49.564Z,1005.32
2019-05-10T14:02:47.559Z,1005.30
2019-05-10T14:03:53.995Z,1005.30
2019-05-10T14:04:47.500Z,1005.26
2019-05-10T14:05:47.513Z,1005.38
2019-05-10T14:06:47.670Z,1005.40
2019-05-10T14:07:51.831Z,1005.37
2019-05-10T14:08:48.807Z,1005.37
2019-05-10T14:09:47.599Z,1005.37
2019-05-10T14:10:49.677Z,1005.36
2019-05-10T14:11:47.628Z,1005.31
2019-05-10T14:12:47.722Z,1005.23
2019-05-10T14:13:47.685Z,1005.18
2019-05-10T14:14:47.689Z,1005.29
2019-05-10T14:15:47.705Z,1005.27
2019-05-10T14:16:47.796Z,1005.30
2019-05-10T14:17:47.819Z,1005.21
2019-05-10T14:18:47.766Z,1005.22
2019-05-10T14:19:47.786Z,1005.21
2019-05-10T14:20:47.832Z,1005.28
2019-05-10T14:21:47.875Z,1005.25
2019-05-10T14:22:55.991Z,1005.25
2019-05-10T14:23:47.875Z,1005.21
2019-05-10T14:24:53.267Z,1005.22
2019-05-10T14:25:47.980Z,1005.25
2019-05-10T14:26:51.541Z,1005.21
2019-05-10T14:27:47.940Z,1005.21
2019-05-10T14:28:53.167Z,1005.22
2019-05-10T14:29:48.004Z,1005.15
2019-05-10T14:30:56.643Z,1005.18
2019-05-10T14:31:48.063Z,1005.17
2019-05-10T14:32:48.129Z,1005.10
2019-05-10T14:34:14.053Z,1005.17
2019-05-10T14:34:48.221Z,1005.19
2019-05-10T14:35:48.249Z,1005.13
2019-05-10T14:36:48.120Z,1005.09
2019-05-10T14:37:48.438Z,1005.06
2019-05-10T14:38:53.896Z,1005.03
2019-05-10T14:39:48.265Z,1004.99
2019-05-10T14:40:48.227Z,1005.04
2019-05-10T14:41:51.049Z,1005.04
2019-05-10T14:42:48.259Z,1005.06
2019-05-10T14:43:48.336Z,1005.05
2019-05-10T14:44:48.343Z,1005.05
2019-05-10T14:45:48.370Z,1005.11
2019-05-10T14:46:48.371Z,1005.14
2019-05-10T14:47:50.619Z,1005.16
2019-05-10T14:48:48.475Z,1005.15
2019-05-10T14:49:48.743Z,1005.16
2019-05-10T14:50:48.398Z,1005.15
2019-05-10T14:51:58.253Z,1005.24
2019-05-10T14:52:48.565Z,1005.25
2019-05-10T14:53:48.466Z,1005.25
2019-05-10T14:54:49.965Z,1005.24
2019-05-10T14:55:48.496Z,1005.25
2019-05-10T14:56:48.515Z,1005.22
2019-05-10T14:57:48.568Z,1005.25
2019-05-10T14:58:48.580Z,1005.24
2019-05-10T14:59:48.589Z,1005.20
2019-05-10T15:00:48.598Z,1005.27
2019-05-10T15:01:48.621Z,1005.25
2019-05-10T15:02:48.639Z,1005.25
2019-05-10T15:03:48.651Z,1005.30
2019-05-10T15:04:48.733Z,1005.29
2019-05-10T15:05:54.050Z,1005.32
2019-05-10T15:06:48.728Z,1005.25
2019-05-10T15:07:51.074Z,1005.32
2019-05-10T15:08:48.772Z,1005.32
2019-05-10T15:09:48.771Z,1005.36
2019-05-10T15:10:48.793Z,1005.36
2019-05-10T15:11:48.873Z,1005.29
2019-05-10T15:12:48.826Z,1005.29
2019-05-10T15:13:48.933Z,1005.29
2019-05-10T15:14:48.865Z,1005.30
2019-05-10T15:15:48.891Z,1005.29
2019-05-10T15:16:48.936Z,1005.33
2019-05-10T15:17:55.144Z,1005.32
2019-05-10T15:18:49.103Z,1005.43
2019-05-10T15:19:57.898Z,1005.49
2019-05-10T15:20:49.019Z,1005.61
2019-05-10T15:21:49.026Z,1005.62
2019-05-10T15:22:49.016Z,1005.62
2019-05-10T15:23:49.037Z,1005.71
2019-05-10T15:24:49.135Z,1005.81
2019-05-10T15:25:57.026Z,1005.78
2019-05-10T15:26:49.095Z,1005.79
2019-05-10T15:27:49.179Z,1005.77
2019-05-10T15:28:49.145Z,1005.70
2019-05-10T15:29:49.160Z,1005.75
2019-05-10T15:30:52.372Z,1005.72
2019-05-10T15:31:49.189Z,1005.66
2019-05-10T15:32:49.254Z,1005.67
2019-05-10T15:33:49.224Z,1005.61
2019-05-10T15:35:05.618Z,1005.49
2019-05-10T15:35:51.873Z,1005.53
2019-05-10T15:36:49.279Z,1005.50
2019-05-10T15:37:49.297Z,1005.55
2019-05-10T15:38:52.044Z,1005.54
2019-05-10T15:39:49.328Z,1005.55
2019-05-10T15:40:49.356Z,1005.51
2019-05-10T15:41:53.630Z,1005.52
2019-05-10T15:42:49.388Z,1005.53
2019-05-10T15:43:53.603Z,1005.56
2019-05-10T15:44:49.431Z,1005.54
2019-05-10T15:45:52.661Z,1005.53
2019-05-10T15:46:49.469Z,1005.52
2019-05-10T15:47:51.626Z,1005.54
2019-05-10T15:48:49.526Z,1005.55
2019-05-10T15:49:49.529Z,1005.51
2019-05-10T15:50:49.526Z,1005.51
2019-05-10T15:51:56.933Z,1005.53
2019-05-10T15:52:49.571Z,1005.58
2019-05-10T15:53:49.605Z,1005.61
2019-05-10T15:54:49.627Z,1005.59
2019-05-10T15:55:49.651Z,1005.61
2019-05-10T15:56:49.663Z,1005.63
2019-05-10T15:57:51.689Z,1005.59
2019-05-10T15:58:49.810Z,1005.61
2019-05-10T15:59:50.668Z,1005.62
2019-05-10T16:00:49.727Z,1005.62
2019-05-10T16:01:49.717Z,1005.62
2019-05-10T16:02:53.046Z,1005.68
2019-05-10T16:03:49.824Z,1005.67
2019-05-10T16:04:49.775Z,1005.70
2019-05-10T16:06:00.347Z,1005.68
2019-05-10T16:06:49.801Z,1005.74
2019-05-10T16:07:51.620Z,1005.70
2019-05-10T16:08:49.838Z,1005.67
2019-05-10T16:09:54.419Z,1005.68
2019-05-10T16:10:49.884Z,1005.63
2019-05-10T16:11:49.968Z,1005.66
2019-05-10T16:12:49.978Z,1005.67
2019-05-10T16:13:54.665Z,1005.70
2019-05-10T16:14:49.940Z,1005.72
2019-05-10T16:15:51.645Z,1005.77
2019-05-10T16:16:50.000Z,1005.72
2019-05-10T16:17:53.814Z,1005.76
2019-05-10T16:18:50.052Z,1005.77
2019-05-10T16:19:50.366Z,1005.74
2019-05-10T16:20:50.055Z,1005.75
2019-05-10T16:21:52.204Z,1005.74
2019-05-10T16:22:50.079Z,1005.75
2019-05-10T16:23:50.167Z,1005.76
2019-05-10T16:24:50.178Z,1005.77
2019-05-10T16:25:50.137Z,1005.79
2019-05-10T16:26:54.611Z,1005.76
2019-05-10T16:27:50.287Z,1005.78
2019-05-10T16:28:53.106Z,1005.74
2019-05-10T16:29:50.238Z,1005.76
2019-05-10T16:30:50.277Z,1005.73
2019-05-10T16:31:50.335Z,1005.71
2019-05-10T16:32:50.300Z,1005.73
2019-05-10T16:33:53.535Z,1005.72
2019-05-10T16:34:50.423Z,1005.70
2019-05-10T16:35:52.040Z,1005.68
2019-05-10T16:36:50.344Z,1005.65
2019-05-10T16:37:50.415Z,1005.65
2019-05-10T16:38:50.397Z,1005.63
2019-05-10T16:39:50.455Z,1005.56
2019-05-10T16:40:58.311Z,1005.55
2019-05-10T16:41:50.481Z,1005.51
2019-05-10T16:42:50.501Z,1005.52
2019-05-10T16:43:51.807Z,1005.49
2019-05-10T16:44:50.607Z,1005.50
2019-05-10T16:45:50.813Z,1005.46
2019-05-10T16:46:50.659Z,1005.49
2019-05-10T16:47:50.661Z,1005.46
2019-05-10T16:48:50.692Z,1005.44
2019-05-10T16:49:53.222Z,1005.43
2019-05-10T16:50:50.666Z,1005.41
2019-05-10T16:51:50.743Z,1005.45
2019-05-10T16:52:50.701Z,1005.45
2019-05-10T16:53:50.783Z,1005.41
2019-05-10T16:54:50.772Z,1005.40
2019-05-10T16:55:50.701Z,1005.39
2019-05-10T16:56:51.526Z,1005.36
2019-05-10T16:57:51.596Z,1005.36
2019-05-10T16:58:53.084Z,1005.36
2019-05-10T16:59:50.845Z,1005.36
2019-05-10T17:00:50.761Z,1005.36
2019-05-10T17:01:50.817Z,1005.34
2019-05-10T17:02:50.890Z,1005.36
2019-05-10T17:04:00.068Z,1005.36
2019-05-10T17:04:50.924Z,1005.37
2019-05-10T17:05:53.929Z,1005.33
2019-05-10T17:06:50.940Z,1005.34
2019-05-10T17:07:53.697Z,1005.36
2019-05-10T17:08:50.895Z,1005.32
2019-05-10T17:09:54.693Z,1005.30
2019-05-10T17:10:50.951Z,1005.30
2019-05-10T17:11:51.037Z,1005.27
2019-05-10T17:12:52.044Z,1005.28
2019-05-10T17:13:51.086Z,1005.29
2019-05-10T17:14:56.359Z,1005.24
2019-05-10T17:15:52.183Z,1005.25
2019-05-10T17:16:58.553Z,1005.22
2019-05-10T17:17:51.232Z,1005.21
2019-05-10T17:18:55.277Z,1005.26
2019-05-10T17:19:51.159Z,1005.25
2019-05-10T17:20:52.470Z,1005.27
2019-05-10T17:21:51.127Z,1005.30
2019-05-10T17:22:51.249Z,1005.25
2019-05-10T17:23:51.327Z,1005.24
2019-05-10T17:24:51.260Z,1005.19
2019-05-10T17:25:51.195Z,1005.17
2019-05-10T17:26:51.427Z,1005.18
2019-05-10T17:27:57.392Z,1005.16
2019-05-10T17:28:51.371Z,1005.18
2019-05-10T17:29:51.380Z,1005.13
2019-05-10T17:30:51.305Z,1005.12
2019-05-10T17:31:51.302Z,1005.15
2019-05-10T17:32:51.307Z,1005.18
2019-05-10T17:33:51.325Z,1005.15
2019-05-10T17:34:51.421Z,1005.21
2019-05-10T17:35:51.440Z,1005.17
2019-05-10T17:36:57.081Z,1005.20
2019-05-10T17:37:53.078Z,1005.19
2019-05-10T17:38:53.500Z,1005.20
2019-05-10T17:39:53.722Z,1005.27
2019-05-10T17:40:51.479Z,1005.24
2019-05-10T17:41:51.463Z,1005.27
2019-05-10T17:42:51.756Z,1005.28
2019-05-10T17:43:51.528Z,1005.27
2019-05-10T17:44:55.273Z,1005.29
2019-05-10T17:45:51.572Z,1005.30
2019-05-10T17:46:55.502Z,1005.25
2019-05-10T17:47:51.556Z,1005.23
2019-05-10T17:48:51.660Z,1005.24
2019-05-10T17:49:51.650Z,1005.25
2019-05-10T17:50:51.660Z,1005.23
2019-05-10T17:51:51.643Z,1005.26
2019-05-10T17:52:51.655Z,1005.26
2019-05-10T17:53:55.056Z,1005.30
2019-05-10T17:54:51.690Z,1005.26
2019-05-10T17:55:55.584Z,1005.26
2019-05-10T17:56:51.743Z,1005.27
2019-05-10T17:57:54.839Z,1005.25
2019-05-10T17:58:51.757Z,1005.21
2019-05-10T17:59:53.110Z,1005.24
2019-05-10T18:00:51.777Z,1005.28
2019-05-10T18:01:51.856Z,1005.28
2019-05-10T18:02:51.812Z,1005.35
2019-05-10T18:03:51.827Z,1005.34
2019-05-10T18:04:51.881Z,1005.35
2019-05-10T18:05:53.459Z,1005.33
2019-05-10T18:06:51.875Z,1005.33
2019-05-10T18:07:51.890Z,1005.34
2019-05-10T18:08:51.903Z,1005.31
